createdAt,value
2023-04-14T00:00:13.963Z,95074.09
2023-04-14T00:02:19.657Z,95046.56
2023-04-14T00:04:22.637Z,95050.63
2023-04-14T00:06:27.300Z,95076.88
2023-04-14T00:08:30.075Z,94701.88
2023-04-14T00:10:32.883Z,94992.84
2023-04-14T00:12:35.691Z,95066.91
2023-04-14T00:14:38.419Z,95067.72
2023-04-14T00:16:42.831Z,95065.31
2023-04-14T00:18:46.980Z,95063.91
2023-04-14T00:20:49.819Z,95063.09
2023-04-14T00:22:52.588Z,94825.94
2023-04-14T00:24:55.389Z,95069.00
2023-04-14T00:26:58.201Z,95061.13
2023-04-14T00:29:01.280Z,95059.63
2023-04-14T00:31:04.268Z,95059.19
2023-04-14T00:33:07.847Z,95064.50
2023-04-14T00:35:12.055Z,95064.16
2023-04-14T00:37:14.818Z,95064.03
2023-04-14T00:39:17.562Z,94945.00
2023-04-14T00:41:20.315Z,94917.28
2023-04-14T00:43:23.199Z,95064.59
2023-04-14T00:45:27.348Z,94956.91
2023-04-14T00:47:30.159Z,94984.38
2023-04-14T00:49:32.959Z,95065.66
2023-04-14T00:51:37.675Z,95068.53
2023-04-14T00:53:41.545Z,95049.34
2023-04-14T00:55:44.703Z,95069.59
2023-04-14T00:57:48.056Z,94945.22
2023-04-14T00:59:51.021Z,95016.53
2023-04-14T01:01:55.907Z,95070.97
2023-04-14T01:03:59.692Z,94942.34
2023-04-14T01:06:03.613Z,95073.97
2023-04-14T01:08:07.924Z,94852.66
2023-04-14T01:10:11.856Z,95081.47
2023-04-14T01:12:19.721Z,95065.06
2023-04-14T01:14:34.060Z,95043.78
2023-04-14T01:16:41.360Z,95028.06
2023-04-14T01:18:54.574Z,95106.91
2023-04-14T01:21:00.557Z,95051.31
2023-04-14T01:23:08.156Z,95093.16
2023-04-14T01:25:37.961Z,95107.38
2023-04-14T01:27:50.835Z,95105.31
2023-04-14T01:30:10.690Z,95104.59
2023-04-14T01:32:20.505Z,95015.72
2023-04-14T01:34:30.417Z,95110.16
2023-04-14T01:36:41.437Z,95047.16
2023-04-14T01:38:46.738Z,95117.91
2023-04-14T01:40:53.592Z,95125.66
2023-04-14T01:43:02.741Z,95009.81
2023-04-14T01:45:22.932Z,95000.81
2023-04-14T01:47:29.162Z,95120.44
2023-04-14T01:49:37.334Z,94951.00
2023-04-14T01:51:44.702Z,95078.72
2023-04-14T01:53:50.599Z,95117.44
2023-04-14T01:55:55.491Z,95100.66
2023-04-14T01:57:59.082Z,95150.50
2023-04-14T02:00:04.520Z,95118.38
2023-04-14T02:02:18.673Z,95123.91
2023-04-14T02:04:26.630Z,95129.69
2023-04-14T02:06:31.796Z,95135.47
2023-04-14T02:08:36.256Z,95130.69
2023-04-14T02:10:41.611Z,95123.97
2023-04-14T02:12:45.546Z,94991.81
2023-04-14T02:14:51.091Z,95129.09
2023-04-14T02:16:57.299Z,95085.50
2023-04-14T02:19:01.586Z,95118.94
2023-04-14T02:21:06.974Z,95131.53
2023-04-14T02:23:10.009Z,94939.69
2023-04-14T02:25:12.913Z,95135.34
2023-04-14T02:27:20.040Z,95132.84
2023-04-14T02:29:24.724Z,94981.75
2023-04-14T02:31:31.315Z,95131.13
2023-04-14T02:33:37.930Z,95128.88
2023-04-14T02:35:47.291Z,95026.53
2023-04-14T02:37:56.076Z,95132.84
2023-04-14T02:40:04.469Z,95134.56
2023-04-14T02:42:13.931Z,95059.13
2023-04-14T02:44:20.564Z,95133.41
2023-04-14T02:46:26.823Z,95046.63
2023-04-14T02:48:30.813Z,95102.16
2023-04-14T02:50:35.074Z,95145.53
2023-04-14T02:52:51.414Z,95140.69
2023-04-14T02:54:58.502Z,95138.69
2023-04-14T02:57:02.262Z,95132.22
2023-04-14T02:59:08.168Z,95138.44
2023-04-14T03:01:17.237Z,95035.66
2023-04-14T03:03:21.278Z,95132.94
2023-04-14T03:05:25.613Z,95130.53
2023-04-14T03:07:36.754Z,95141.28
2023-04-14T03:09:41.348Z,95136.53
2023-04-14T03:11:46.357Z,95043.91
2023-04-14T03:13:53.535Z,95073.22
2023-04-14T03:15:59.446Z,95118.91
2023-04-14T03:18:05.448Z,95142.56
2023-04-14T03:20:11.001Z,95071.53
2023-04-14T03:22:15.468Z,95125.31
2023-04-14T03:24:24.415Z,95141.63
2023-04-14T03:26:33.076Z,95138.81
2023-04-14T03:28:41.219Z,95127.91
2023-04-14T03:30:49.163Z,95133.78
2023-04-14T03:32:53.586Z,95140.47
2023-04-14T03:34:59.228Z,95028.09
2023-04-14T03:37:05.461Z,95139.94
2023-04-14T03:39:14.504Z,95138.91
2023-04-14T03:41:22.151Z,95133.53
2023-04-14T03:43:27.270Z,95130.31
2023-04-14T03:45:40.150Z,95125.59
2023-04-14T03:47:44.160Z,95000.50
2023-04-14T03:49:50.294Z,95069.50
2023-04-14T03:51:55.771Z,95137.69
2023-04-14T03:54:00.775Z,95070.59
2023-04-14T03:56:06.467Z,95125.78
2023-04-14T03:58:11.827Z,95123.66
2023-04-14T04:00:16.781Z,95079.00
2023-04-14T04:02:24.718Z,95114.69
2023-04-14T04:04:28.588Z,95157.22
2023-04-14T04:06:33.729Z,95105.66
2023-04-14T04:08:37.994Z,95118.69
2023-04-14T04:10:43.799Z,95118.91
2023-04-14T04:12:48.849Z,95118.31
2023-04-14T04:14:52.556Z,95125.19
2023-04-14T04:16:57.016Z,95125.28
2023-04-14T04:19:07.296Z,95116.81
2023-04-14T04:21:11.608Z,95110.94
2023-04-14T04:23:18.075Z,95017.25
2023-04-14T04:25:21.269Z,95115.59
2023-04-14T04:27:34.685Z,95092.06
2023-04-14T04:29:45.187Z,95101.44
2023-04-14T04:31:48.557Z,95134.03
2023-04-14T04:33:52.506Z,95023.56
2023-04-14T04:35:58.629Z,95132.63
2023-04-14T04:38:11.310Z,95136.22
2023-04-14T04:40:16.880Z,95024.16
2023-04-14T04:42:20.231Z,95141.47
2023-04-14T04:44:23.009Z,95143.81
2023-04-14T04:46:54.320Z,95139.69
2023-04-14T04:49:01.131Z,95148.38
2023-04-14T04:51:05.471Z,95104.91
2023-04-14T04:53:08.193Z,95143.75
2023-04-14T04:55:11.688Z,95161.38
2023-04-14T04:57:14.465Z,95153.22
2023-04-14T04:59:17.471Z,95153.66
2023-04-14T05:01:20.363Z,95034.88
2023-04-14T05:03:23.203Z,95160.28
2023-04-14T05:05:26.103Z,95177.00
2023-04-14T05:07:30.193Z,95174.59
2023-04-14T05:09:33.024Z,95168.25
2023-04-14T05:11:36.150Z,95177.38
2023-04-14T05:13:39.027Z,95180.63
2023-04-14T05:15:42.100Z,95190.81
2023-04-14T05:17:44.943Z,95091.88
2023-04-14T05:19:47.734Z,95188.38
2023-04-14T05:21:50.508Z,95181.66
2023-04-14T05:23:54.629Z,95191.09
2023-04-14T05:26:07.245Z,95184.91
2023-04-14T05:28:20.357Z,95186.53
2023-04-14T05:30:23.312Z,95192.94
2023-04-14T05:32:28.987Z,95149.50
2023-04-14T05:34:32.143Z,95138.97
2023-04-14T05:36:34.898Z,95193.09
2023-04-14T05:38:40.134Z,95201.84
2023-04-14T05:40:44.469Z,95208.53
2023-04-14T05:42:47.328Z,95097.13
2023-04-14T05:44:50.089Z,95209.38
2023-04-14T05:46:52.983Z,95138.72
2023-04-14T05:48:56.861Z,95215.88
2023-04-14T05:50:59.672Z,95216.84
2023-04-14T05:53:02.637Z,95132.09
2023-04-14T05:55:06.114Z,95211.13
2023-04-14T05:57:10.207Z,95211.22
2023-04-14T05:59:13.155Z,95187.84
2023-04-14T06:01:16.453Z,95242.38
2023-04-14T06:03:19.419Z,95155.66
2023-04-14T06:05:24.294Z,95187.03
2023-04-14T06:07:27.235Z,95212.75
2023-04-14T06:09:30.003Z,95141.25
2023-04-14T06:11:32.952Z,95195.41
2023-04-14T06:13:37.047Z,95213.31
2023-04-14T06:15:39.806Z,95210.50
2023-04-14T06:17:42.588Z,95205.56
2023-04-14T06:19:46.877Z,95202.00
2023-04-14T06:21:49.645Z,95218.31
2023-04-14T06:23:52.416Z,95222.63
2023-04-14T06:25:55.624Z,95213.53
2023-04-14T06:27:58.426Z,95212.84
2023-04-14T06:30:02.874Z,95217.97
2023-04-14T06:32:05.746Z,95211.75
2023-04-14T06:34:08.548Z,95216.59
2023-04-14T06:36:11.365Z,95210.84
2023-04-14T06:38:14.151Z,95210.06
2023-04-14T06:40:16.984Z,95186.69
2023-04-14T06:42:19.722Z,95213.44
2023-04-14T06:44:23.708Z,95206.03
2023-04-14T06:46:28.025Z,95204.78
2023-04-14T06:48:30.866Z,95199.44
2023-04-14T06:50:33.655Z,95206.50
2023-04-14T06:52:36.498Z,95211.59
2023-04-14T06:54:39.285Z,95200.69
2023-04-14T06:56:42.073Z,95194.53
2023-04-14T06:58:44.858Z,95202.63
2023-04-14T07:00:47.663Z,95137.06
2023-04-14T07:02:51.869Z,95203.66
2023-04-14T07:04:54.800Z,95201.94
2023-04-14T07:07:00.750Z,95141.19
2023-04-14T07:09:03.557Z,95166.59
2023-04-14T07:11:08.763Z,95194.97
2023-04-14T07:13:11.588Z,95196.94
2023-04-14T07:15:15.399Z,95195.41
2023-04-14T07:17:18.579Z,95189.69
2023-04-14T07:19:22.682Z,95185.81
2023-04-14T07:21:25.488Z,95184.91
2023-04-14T07:23:28.905Z,95181.09
2023-04-14T07:25:31.684Z,95175.22
2023-04-14T07:27:34.492Z,95168.59
2023-04-14T07:29:37.421Z,95162.13
2023-04-14T07:31:40.302Z,95073.66
2023-04-14T07:33:43.087Z,95170.53
2023-04-14T07:36:00.683Z,95164.28
2023-04-14T07:38:04.552Z,95160.78
2023-04-14T07:40:08.928Z,95160.91
2023-04-14T07:42:12.602Z,95166.09
2023-04-14T07:44:15.381Z,95168.50
2023-04-14T07:46:18.269Z,95169.88
2023-04-14T07:48:21.544Z,95165.91
2023-04-14T07:50:24.703Z,95168.63
2023-04-14T07:52:28.986Z,95156.53
2023-04-14T07:54:32.079Z,95155.84
2023-04-14T07:56:34.903Z,95148.50
2023-04-14T07:58:37.821Z,95041.16
2023-04-14T08:00:40.574Z,95151.47
2023-04-14T08:02:43.856Z,95143.03
2023-04-14T08:04:46.813Z,95135.16
2023-04-14T08:06:49.550Z,95147.88
2023-04-14T08:08:53.708Z,95015.13
2023-04-14T08:10:56.495Z,95151.31
2023-04-14T08:13:00.190Z,95132.56
2023-04-14T08:15:04.818Z,95152.00
2023-04-14T08:17:07.583Z,95151.28
2023-04-14T08:19:10.476Z,95148.25
2023-04-14T08:21:13.267Z,95151.56
2023-04-14T08:23:16.183Z,94844.72
2023-04-14T08:25:20.377Z,95147.22
2023-04-14T08:27:23.146Z,95143.25
2023-04-14T08:29:26.344Z,95151.59
2023-04-14T08:31:29.196Z,95152.25
2023-04-14T08:33:33.794Z,95157.50
2023-04-14T08:35:41.497Z,95079.41
2023-04-14T08:37:46.225Z,95157.53
2023-04-14T08:39:48.990Z,95150.63
2023-04-14T08:41:54.225Z,94917.63
2023-04-14T08:43:57.198Z,95146.22
2023-04-14T08:46:02.052Z,95153.78
2023-04-14T08:48:05.910Z,95151.91
2023-04-14T08:50:14.405Z,95160.00
2023-04-14T08:52:21.952Z,95156.25
2023-04-14T08:54:25.816Z,95153.53
2023-04-14T08:56:32.954Z,95154.88
2023-04-14T08:58:37.138Z,95152.69
2023-04-14T09:00:41.111Z,95028.66
2023-04-14T09:02:44.538Z,95131.25
2023-04-14T09:04:47.978Z,95148.88
2023-04-14T09:06:50.897Z,95152.28
2023-04-14T09:08:54.095Z,95147.22
2023-04-14T09:10:56.896Z,95147.22
2023-04-14T09:13:01.384Z,95146.94
2023-04-14T09:15:06.932Z,95152.56
2023-04-14T09:17:10.172Z,94988.28
2023-04-14T09:19:13.009Z,95134.66
2023-04-14T09:21:30.335Z,95142.09
2023-04-14T09:23:41.813Z,95149.03
2023-04-14T09:25:44.701Z,95145.94
2023-04-14T09:27:48.983Z,95141.03
2023-04-14T09:29:52.704Z,95143.25
2023-04-14T09:31:57.117Z,95142.78
2023-04-14T09:34:00.197Z,95130.06
2023-04-14T09:36:03.133Z,95138.56
2023-04-14T09:38:08.007Z,95145.25
2023-04-14T09:40:11.970Z,95133.56
2023-04-14T09:42:14.753Z,95126.38
2023-04-14T09:44:17.555Z,95133.25
2023-04-14T09:46:20.529Z,95131.00
2023-04-14T09:48:25.348Z,95133.56
2023-04-14T09:50:28.169Z,95133.81
2023-04-14T09:52:39.170Z,95135.66
2023-04-14T09:54:43.070Z,95067.91
2023-04-14T09:56:46.882Z,95103.16
2023-04-14T09:58:50.400Z,95135.56
2023-04-14T10:00:53.264Z,95134.59
2023-04-14T10:02:59.122Z,95133.47
2023-04-14T10:05:07.513Z,95130.44
2023-04-14T10:07:12.217Z,95123.38
2023-04-14T10:09:21.907Z,95130.13
2023-04-14T10:11:26.221Z,95117.19
2023-04-14T10:13:29.016Z,95126.97
2023-04-14T10:15:31.962Z,95113.59
2023-04-14T10:17:34.812Z,95116.59
2023-04-14T10:19:39.025Z,95119.38
2023-04-14T10:21:43.293Z,95105.94
2023-04-14T10:23:47.238Z,95123.16
2023-04-14T10:25:51.416Z,95124.81
2023-04-14T10:27:54.469Z,95110.84
2023-04-14T10:29:57.442Z,95106.19
2023-04-14T10:32:05.463Z,95103.22
2023-04-14T10:34:10.846Z,95109.66
2023-04-14T10:36:14.092Z,95102.19
2023-04-14T10:38:18.433Z,95103.16
2023-04-14T10:40:23.078Z,95100.78
2023-04-14T10:42:26.926Z,95103.25
2023-04-14T10:44:31.671Z,95103.47
2023-04-14T10:46:44.453Z,95099.03
2023-04-14T10:48:49.869Z,95093.25
2023-04-14T10:50:56.700Z,95080.66
2023-04-14T10:53:00.401Z,95090.97
2023-04-14T10:55:11.608Z,95080.03
2023-04-14T10:57:15.540Z,95085.16
2023-04-14T10:59:18.385Z,95086.50
2023-04-14T11:01:31.127Z,95081.78
2023-04-14T11:03:45.343Z,95076.34
2023-04-14T11:05:50.713Z,95079.78
2023-04-14T11:08:00.801Z,94846.81
2023-04-14T11:10:28.383Z,95077.88
2023-04-14T11:12:31.491Z,95068.03
2023-04-14T11:14:36.400Z,95071.25
2023-04-14T11:16:44.649Z,95066.34
2023-04-14T11:18:55.591Z,95062.38
2023-04-14T11:21:04.279Z,95065.56
2023-04-14T11:23:07.069Z,95069.09
2023-04-14T11:25:13.089Z,95061.16
2023-04-14T11:27:17.924Z,95051.03
2023-04-14T11:29:20.775Z,95040.47
2023-04-14T11:31:28.166Z,95052.97
2023-04-14T11:33:32.524Z,95044.47
2023-04-14T11:35:35.520Z,95056.34
2023-04-14T11:37:38.333Z,95062.84
2023-04-14T11:39:41.371Z,95054.53
2023-04-14T11:41:47.576Z,95061.03
2023-04-14T11:43:51.806Z,95047.66
2023-04-14T11:45:54.736Z,95046.63
2023-04-14T11:47:59.318Z,95046.50
2023-04-14T11:50:07.143Z,94986.97
2023-04-14T11:52:09.987Z,95045.63
2023-04-14T11:54:13.669Z,95045.78
2023-04-14T11:56:17.324Z,95042.22
2023-04-14T11:58:23.774Z,95040.25
2023-04-14T12:00:28.571Z,95028.19
2023-04-14T12:02:31.422Z,94991.41
2023-04-14T12:04:34.818Z,95033.16
2023-04-14T12:06:39.096Z,95023.25
2023-04-14T12:08:41.917Z,94986.53
2023-04-14T12:10:46.790Z,95016.25
2023-04-14T12:12:49.556Z,95016.03
2023-04-14T12:14:52.448Z,95000.47
2023-04-14T12:16:56.717Z,95014.84
2023-04-14T12:18:59.832Z,94956.47
2023-04-14T12:21:05.940Z,95001.38
2023-04-14T12:23:10.270Z,95003.38
2023-04-14T12:25:13.882Z,94980.63
2023-04-14T12:27:19.672Z,94995.53
2023-04-14T12:29:22.903Z,94999.00
2023-04-14T12:31:30.432Z,94995.81
2023-04-14T12:33:35.198Z,94986.66
2023-04-14T12:35:37.952Z,94980.44
2023-04-14T12:37:41.532Z,94817.38
2023-04-14T12:39:51.972Z,94968.19
2023-04-14T12:41:55.570Z,94969.84
2023-04-14T12:43:58.628Z,94976.09
2023-04-14T12:46:03.722Z,94959.19
2023-04-14T12:48:06.979Z,94965.53
2023-04-14T12:50:29.087Z,94963.59
2023-04-14T12:52:38.075Z,94966.66
2023-04-14T12:54:48.770Z,94961.97
2023-04-14T12:56:51.554Z,94941.22
2023-04-14T12:58:55.313Z,94959.50
2023-04-14T13:00:58.120Z,94957.09
2023-04-14T13:03:01.037Z,94959.34
2023-04-14T13:05:04.092Z,94945.84
2023-04-14T13:07:08.219Z,94894.19
2023-04-14T13:09:11.593Z,94947.59
2023-04-14T13:11:14.697Z,94946.06
2023-04-14T13:13:17.494Z,94943.13
2023-04-14T13:15:27.883Z,94935.00
2023-04-14T13:17:43.130Z,94934.06
2023-04-14T13:19:46.066Z,94932.50
2023-04-14T13:21:48.825Z,94928.72
2023-04-14T13:23:52.925Z,94932.56
2023-04-14T13:25:56.106Z,94919.00
2023-04-14T13:27:58.866Z,94920.28
2023-04-14T13:30:02.429Z,94875.81
2023-04-14T13:32:09.696Z,94905.66
2023-04-14T13:34:12.508Z,94906.28
2023-04-14T13:36:15.644Z,94913.16
2023-04-14T13:38:18.655Z,94916.75
2023-04-14T13:40:22.846Z,94895.91
2023-04-14T13:42:25.603Z,94897.75
2023-04-14T13:44:28.852Z,94894.97
2023-04-14T13:46:40.288Z,94897.59
2023-04-14T13:48:44.128Z,94815.19
2023-04-14T13:50:47.444Z,94893.41
2023-04-14T13:52:50.277Z,94889.16
2023-04-14T13:54:53.119Z,94880.75
2023-04-14T13:56:57.707Z,94881.31
2023-04-14T13:59:00.915Z,94880.03
2023-04-14T14:01:10.855Z,94882.38
2023-04-14T14:03:13.742Z,94860.44
2023-04-14T14:05:16.885Z,94882.63
2023-04-14T14:07:19.665Z,94877.13
2023-04-14T14:09:22.463Z,94880.19
2023-04-14T14:11:25.244Z,94868.53
2023-04-14T14:13:29.625Z,94859.63
2023-04-14T14:15:32.476Z,94872.81
2023-04-14T14:17:36.782Z,94904.06
2023-04-14T14:19:40.002Z,94866.25
2023-04-14T14:21:43.961Z,94864.84
2023-04-14T14:23:47.267Z,94811.34
2023-04-14T14:25:50.153Z,94741.09
2023-04-14T14:27:53.068Z,94849.47
2023-04-14T14:29:57.238Z,94852.38
2023-04-14T14:32:00.049Z,94851.41
2023-04-14T14:34:02.983Z,94861.97
2023-04-14T14:36:06.909Z,94850.38
2023-04-14T14:38:09.694Z,94852.31
2023-04-14T14:40:13.676Z,94855.09
2023-04-14T14:42:16.433Z,94846.34
2023-04-14T14:44:19.208Z,94852.22
2023-04-14T14:46:23.908Z,94815.00
2023-04-14T14:48:26.696Z,94856.69
2023-04-14T14:50:29.436Z,94858.63
2023-04-14T14:52:34.437Z,94861.91
2023-04-14T14:54:37.654Z,94862.47
2023-04-14T14:56:40.546Z,94857.41
2023-04-14T14:58:43.408Z,94845.25
2023-04-14T15:00:46.762Z,94847.94
2023-04-14T15:02:51.236Z,94774.56
2023-04-14T15:04:54.608Z,94856.66
2023-04-14T15:06:57.459Z,94856.44
2023-04-14T15:09:00.660Z,94860.28
2023-04-14T15:11:03.535Z,94858.66
2023-04-14T15:13:07.324Z,94860.47
2023-04-14T15:15:10.878Z,94854.53
2023-04-14T15:17:13.661Z,94861.66
2023-04-14T15:19:17.762Z,94858.47
2023-04-14T15:21:20.608Z,94848.78
2023-04-14T15:23:23.360Z,94860.84
2023-04-14T15:25:26.173Z,94859.56
2023-04-14T15:27:28.871Z,94859.91
2023-04-14T15:29:31.702Z,94861.63
2023-04-14T15:31:34.640Z,94858.22
2023-04-14T15:33:37.388Z,94788.88
2023-04-14T15:35:42.136Z,94860.44
2023-04-14T15:37:45.030Z,94854.63
2023-04-14T15:39:47.778Z,94848.06
2023-04-14T15:41:51.329Z,94848.09
2023-04-14T15:43:54.118Z,94855.88
2023-04-14T15:45:56.942Z,94842.94
2023-04-14T15:47:59.802Z,94797.28
2023-04-14T15:50:09.830Z,94810.75
2023-04-14T15:52:14.890Z,94851.72
2023-04-14T15:54:17.716Z,94853.44
2023-04-14T15:56:23.055Z,94856.38
2023-04-14T15:58:27.334Z,94577.41
2023-04-14T16:00:30.146Z,94848.72
2023-04-14T16:02:35.519Z,94778.97
2023-04-14T16:04:38.480Z,94781.38
2023-04-14T16:06:41.341Z,94848.13
2023-04-14T16:08:45.525Z,94849.03
2023-04-14T16:10:48.832Z,94755.53
2023-04-14T16:12:51.598Z,94823.13
2023-04-14T16:14:54.945Z,94849.16
2023-04-14T16:16:57.691Z,94816.81
2023-04-14T16:19:00.770Z,94846.97
2023-04-14T16:21:03.850Z,94848.75
2023-04-14T16:23:06.608Z,94852.69
2023-04-14T16:25:11.265Z,94851.13
2023-04-14T16:27:14.030Z,94856.13
2023-04-14T16:29:16.797Z,94790.19
2023-04-14T16:31:19.635Z,94850.03
2023-04-14T16:33:22.363Z,94704.72
2023-04-14T16:35:25.740Z,94859.28
2023-04-14T16:37:28.498Z,94848.22
2023-04-14T16:39:31.646Z,94860.91
2023-04-14T16:41:36.204Z,94863.53
2023-04-14T16:43:38.929Z,94844.53
2023-04-14T16:45:41.958Z,94807.34
2023-04-14T16:47:44.755Z,94868.13
2023-04-14T16:49:50.046Z,94858.88
2023-04-14T16:51:52.803Z,94751.81
2023-04-14T16:53:57.042Z,94739.66
2023-04-14T16:56:04.326Z,94853.56
2023-04-14T16:58:09.612Z,94868.66
2023-04-14T17:00:13.792Z,94869.78
2023-04-14T17:02:16.679Z,94861.50
2023-04-14T17:04:19.828Z,94870.91
2023-04-14T17:06:22.794Z,94877.94
2023-04-14T17:08:25.583Z,94825.72
2023-04-14T17:10:29.691Z,94859.25
2023-04-14T17:12:32.727Z,94819.78
2023-04-14T17:14:37.313Z,94834.75
2023-04-14T17:16:40.201Z,94863.69
2023-04-14T17:18:43.981Z,94823.50
2023-04-14T17:20:47.051Z,94703.06
2023-04-14T17:22:51.283Z,94861.59
2023-04-14T17:24:55.676Z,94861.47
2023-04-14T17:26:58.441Z,94780.00
2023-04-14T17:29:01.382Z,94837.25
2023-04-14T17:31:12.618Z,94858.81
2023-04-14T17:33:16.798Z,94866.72
2023-04-14T17:35:19.990Z,94844.72
2023-04-14T17:37:23.177Z,94870.09
2023-04-14T17:39:27.688Z,94864.38
2023-04-14T17:41:30.882Z,94854.91
2023-04-14T17:43:37.850Z,94825.00
2023-04-14T17:45:43.796Z,94833.41
2023-04-14T17:47:47.937Z,94864.75
2023-04-14T17:49:51.150Z,94866.44
2023-04-14T17:51:56.219Z,94776.91
2023-04-14T17:53:59.497Z,94793.28
2023-04-14T17:56:02.462Z,94865.13
2023-04-14T17:58:05.821Z,94864.69
2023-04-14T18:00:11.093Z,94859.56
2023-04-14T18:02:16.830Z,94864.31
2023-04-14T18:04:21.327Z,94859.41
2023-04-14T18:06:24.273Z,94666.09
2023-04-14T18:08:27.029Z,94861.06
2023-04-14T18:10:29.863Z,94836.31
2023-04-14T18:12:33.350Z,94819.56
2023-04-14T18:14:36.699Z,94837.13
2023-04-14T18:16:39.519Z,94860.22
2023-04-14T18:18:42.351Z,94874.72
2023-04-14T18:20:50.103Z,94860.28
2023-04-14T18:22:54.123Z,94864.19
2023-04-14T18:24:56.903Z,94867.56
2023-04-14T18:26:59.813Z,94870.72
2023-04-14T18:29:02.820Z,94830.59
2023-04-14T18:31:06.553Z,94878.56
2023-04-14T18:33:09.351Z,94862.22
2023-04-14T18:35:12.987Z,94845.84
2023-04-14T18:37:17.104Z,94878.38
2023-04-14T18:39:20.764Z,94761.31
2023-04-14T18:41:23.565Z,94771.28
2023-04-14T18:43:26.409Z,94889.16
2023-04-14T18:45:29.186Z,94891.88
2023-04-14T18:47:32.055Z,94891.31
2023-04-14T18:49:35.341Z,94887.81
2023-04-14T18:51:38.130Z,94896.16
2023-04-14T18:53:44.008Z,94888.38
2023-04-14T18:55:48.345Z,94898.84
2023-04-14T18:57:52.794Z,94906.88
2023-04-14T18:59:55.752Z,94897.22
2023-04-14T19:01:59.558Z,94861.78
2023-04-14T19:04:03.070Z,94854.28
2023-04-14T19:06:06.180Z,94887.53
2023-04-14T19:08:08.981Z,94892.88
2023-04-14T19:10:13.132Z,94905.53
2023-04-14T19:14:24.397Z,94921.91
2023-04-14T19:16:27.585Z,94912.50
2023-04-14T19:18:30.403Z,94923.78
2023-04-14T19:20:33.607Z,94888.88
2023-04-14T19:22:36.336Z,94926.16
2023-04-14T19:24:39.153Z,94736.50
2023-04-14T19:26:43.250Z,94935.78
2023-04-14T19:28:46.052Z,94926.16
2023-04-14T19:30:48.855Z,94925.31
2023-04-14T19:32:53.364Z,94917.25
2023-04-14T19:34:56.369Z,94934.69
2023-04-14T19:36:59.131Z,94853.09
2023-04-14T19:39:02.025Z,94921.25
2023-04-14T19:41:05.045Z,94888.75
2023-04-14T19:43:09.101Z,94930.84
2023-04-14T19:45:12.215Z,94922.31
2023-04-14T19:47:14.921Z,94918.00
2023-04-14T19:49:17.670Z,94929.81
2023-04-14T19:51:21.340Z,94899.50
2023-04-14T19:53:24.914Z,94922.28
2023-04-14T19:55:27.693Z,94891.38
2023-04-14T19:57:30.538Z,94923.59
2023-04-14T19:59:34.666Z,94918.31
2023-04-14T20:01:37.607Z,94922.38
2023-04-14T20:04:04.999Z,94820.31
2023-04-14T20:06:03.706Z,94921.72
2023-04-14T20:08:07.057Z,94879.31
2023-04-14T20:10:10.767Z,94884.09
2023-04-14T20:12:14.472Z,94886.28
2023-04-14T20:14:17.953Z,94887.06
2023-04-14T20:16:26.957Z,94912.59
2023-04-14T20:18:30.693Z,94877.97
2023-04-14T20:20:33.715Z,94909.66
2023-04-14T20:22:36.969Z,94908.47
2023-04-14T20:24:39.798Z,94903.41
2023-04-14T20:26:43.632Z,94913.16
2023-04-14T20:28:47.473Z,94913.88
2023-04-14T20:30:52.667Z,94856.84
2023-04-14T20:32:56.900Z,94906.53
2023-04-14T20:35:00.193Z,94929.56
2023-04-14T20:37:02.959Z,94905.75
2023-04-14T20:39:06.430Z,94903.72
2023-04-14T20:41:09.161Z,94883.47
2023-04-14T20:43:12.044Z,94912.41
2023-04-14T20:45:14.862Z,94908.91
2023-04-14T20:47:17.699Z,94905.91
2023-04-14T20:49:22.184Z,94904.38
2023-04-14T20:51:25.212Z,94908.38
2023-04-14T20:53:29.988Z,94909.47
2023-04-14T20:55:32.834Z,94885.69
2023-04-14T20:57:35.581Z,94915.72
2023-04-14T20:59:38.317Z,94906.22
2023-04-14T21:01:42.678Z,94917.19
2023-04-14T21:03:45.590Z,94914.44
2023-04-14T21:05:49.743Z,94363.72
2023-04-14T21:07:52.734Z,94821.91
2023-04-14T21:09:55.508Z,94818.19
2023-04-14T21:12:14.720Z,94912.72
2023-04-14T21:15:40.489Z,94907.59
2023-04-14T21:16:41.827Z,94888.03
2023-04-14T21:18:44.704Z,94919.81
2023-04-14T21:20:48.816Z,94921.16
2023-04-14T21:22:52.175Z,94923.47
2023-04-14T21:24:55.074Z,94822.78
2023-04-14T21:26:58.016Z,94919.47
2023-04-14T21:29:01.113Z,94913.13
2023-04-14T21:31:04.569Z,94849.81
2023-04-14T21:33:08.782Z,94895.75
2023-04-14T21:35:21.302Z,94926.81
2023-04-14T21:37:25.557Z,94925.97
2023-04-14T21:39:29.941Z,94920.97
2023-04-14T21:41:33.096Z,94920.09
2023-04-14T21:43:36.284Z,94928.81
2023-04-14T21:45:39.293Z,94886.91
2023-04-14T21:47:42.727Z,94896.47
2023-04-14T21:49:45.596Z,94919.44
2023-04-14T21:51:48.452Z,94921.16
2023-04-14T21:53:52.667Z,94922.53
2023-04-14T21:56:08.737Z,94916.19
2023-04-14T21:58:13.606Z,94927.94
2023-04-14T22:00:17.428Z,94926.34
2023-04-14T22:02:20.502Z,94924.50
2023-04-14T22:04:35.331Z,94927.38
2023-04-14T22:06:39.549Z,94930.59
2023-04-14T22:08:42.357Z,94930.59
2023-04-14T22:10:47.387Z,94936.19
2023-04-14T22:12:50.641Z,94927.34
2023-04-14T22:14:53.783Z,94932.69
2023-04-14T22:16:56.614Z,94931.31
2023-04-14T22:18:59.579Z,94925.63
2023-04-14T22:21:03.069Z,94910.47
2023-04-14T22:23:05.940Z,94935.94
2023-04-14T22:25:11.538Z,94931.38
2023-04-14T22:27:15.687Z,94922.28
2023-04-14T22:29:18.731Z,94924.38
2023-04-14T22:31:21.793Z,94926.47
2023-04-14T22:33:24.596Z,94922.38
2023-04-14T22:35:27.442Z,94752.81
2023-04-14T22:37:30.199Z,94509.97
2023-04-14T22:39:32.962Z,94928.53
2023-04-14T22:41:35.835Z,94751.41
2023-04-14T22:43:39.896Z,94883.72
2023-04-14T22:45:42.609Z,94900.28
2023-04-14T22:47:45.615Z,94929.31
2023-04-14T22:49:48.533Z,94928.75
2023-04-14T22:51:51.745Z,94929.81
2023-04-14T22:53:54.466Z,94924.34
2023-04-14T22:55:58.193Z,94890.13
2023-04-14T22:58:01.046Z,94926.22
2023-04-14T23:00:09.060Z,94929.69
2023-04-14T23:02:12.710Z,94860.59
2023-04-14T23:04:15.643Z,94959.59
2023-04-14T23:06:19.844Z,94936.66
2023-04-14T23:08:22.544Z,94836.94
2023-04-14T23:10:25.438Z,94927.41
2023-04-14T23:12:28.396Z,94888.13
2023-04-14T23:14:32.287Z,94926.84
2023-04-14T23:16:36.554Z,94923.50
2023-04-14T23:18:40.009Z,94900.75
2023-04-14T23:20:43.165Z,94887.91
2023-04-14T23:22:45.917Z,94931.19
2023-04-14T23:24:50.175Z,94935.22
2023-04-14T23:26:52.895Z,94934.72
2023-04-14T23:28:55.763Z,94930.06
2023-04-14T23:30:58.808Z,94943.66
2023-04-14T23:33:03.029Z,94936.97
2023-04-14T23:35:06.915Z,94814.31
2023-04-14T23:37:09.645Z,94935.31
2023-04-14T23:39:12.587Z,94869.03
2023-04-14T23:41:15.609Z,94930.69
2023-04-14T23:43:18.304Z,94930.44
2023-04-14T23:45:21.065Z,94787.94
2023-04-14T23:47:23.866Z,94916.31
2023-04-14T23:49:34.849Z,94925.94
2023-04-14T23:51:38.514Z,94894.84
2023-04-14T23:53:41.598Z,94920.66
2023-04-14T23:55:44.585Z,94824.09
2023-04-14T23:57:47.321Z,94916.50
2023-04-14T23:59:50.010Z,94913.44
